createdAt,value
2022-08-20T00:01:57.408Z,4.33
2022-08-20T00:04:29.321Z,4.90
2022-08-20T00:07:01.077Z,4.27
2022-08-20T00:09:36.667Z,4.00
2022-08-20T00:12:10.198Z,4.27
2022-08-20T00:14:42.001Z,3.70
2022-08-20T00:17:13.865Z,4.03
2022-08-20T00:19:45.624Z,4.33
2022-08-20T00:22:17.530Z,3.77
2022-08-20T00:24:49.271Z,3.57
2022-08-20T00:27:21.024Z,3.83
2022-08-20T00:29:52.765Z,3.87
2022-08-20T00:32:24.789Z,3.53
2022-08-20T00:34:56.824Z,3.53
2022-08-20T00:37:28.572Z,3.30
2022-08-20T00:40:00.795Z,3.53
2022-08-20T00:42:52.150Z,4.20
2022-08-20T00:45:27.705Z,3.47
2022-08-20T00:47:59.601Z,3.80
2022-08-20T00:50:36.017Z,3.20
2022-08-20T00:53:08.767Z,3.30
2022-08-20T00:55:41.376Z,3.30
2022-08-20T00:58:13.154Z,3.50
2022-08-20T01:00:47.386Z,3.37
2022-08-20T01:03:20.484Z,3.40
2022-08-20T01:05:52.764Z,3.20
2022-08-20T01:08:26.622Z,3.30
2022-08-20T01:11:10.176Z,3.43
2022-08-20T01:13:44.045Z,3.17
2022-08-20T01:16:25.192Z,3.10
2022-08-20T01:19:00.993Z,3.20
2022-08-20T01:21:34.259Z,3.47
2022-08-20T01:24:15.441Z,3.30
2022-08-20T01:26:49.212Z,3.60
2022-08-20T01:29:25.331Z,3.83
2022-08-20T01:32:01.460Z,3.20
2022-08-20T01:34:33.656Z,4.37
2022-08-20T01:37:05.479Z,3.00
2022-08-20T01:39:37.515Z,3.30
2022-08-20T01:42:20.829Z,3.63
2022-08-20T01:44:52.871Z,3.07
2022-08-20T01:47:29.374Z,3.57
2022-08-20T01:50:14.795Z,3.07
2022-08-20T01:53:04.355Z,2.90
2022-08-20T01:55:37.609Z,3.47
2022-08-20T01:58:09.835Z,4.20
2022-08-20T02:00:42.484Z,3.40
2022-08-20T02:03:14.286Z,3.57
2022-08-20T02:05:46.021Z,3.60
2022-08-20T02:08:17.772Z,3.73
2022-08-20T02:10:49.540Z,3.70
2022-08-20T02:13:21.907Z,3.37
2022-08-20T02:15:53.976Z,3.57
2022-08-20T02:18:25.779Z,3.70
2022-08-20T02:20:57.548Z,4.03
2022-08-20T02:23:29.548Z,4.10
2022-08-20T02:26:01.320Z,4.63
2022-08-20T02:28:33.323Z,3.70
2022-08-20T02:31:08.425Z,4.33
2022-08-20T02:33:40.197Z,3.73
2022-08-20T02:36:14.123Z,5.00
2022-08-20T02:38:46.668Z,3.90
2022-08-20T02:41:18.628Z,4.17
2022-08-20T02:43:51.300Z,3.63
2022-08-20T02:46:23.062Z,4.13
2022-08-20T02:48:55.602Z,3.67
2022-08-20T02:51:28.655Z,3.73
2022-08-20T02:54:02.482Z,4.00
2022-08-20T02:56:34.471Z,4.67
2022-08-20T02:59:06.474Z,3.70
2022-08-20T03:01:39.024Z,4.67
2022-08-20T03:04:11.194Z,4.03
2022-08-20T03:06:42.929Z,3.60
2022-08-20T03:09:14.681Z,3.63
2022-08-20T03:11:46.459Z,4.03
2022-08-20T03:14:18.209Z,3.70
2022-08-20T03:16:50.179Z,3.80
2022-08-20T03:19:22.992Z,3.37
2022-08-20T03:21:54.720Z,3.63
2022-08-20T03:24:26.658Z,3.63
2022-08-20T03:26:58.573Z,3.90
2022-08-20T03:29:30.496Z,4.17
2022-08-20T03:32:06.006Z,3.90
2022-08-20T03:34:39.407Z,3.80
2022-08-20T03:37:11.679Z,4.00
2022-08-20T03:39:43.577Z,4.03
2022-08-20T03:42:15.354Z,4.13
2022-08-20T03:44:48.406Z,3.83
2022-08-20T03:47:30.524Z,3.53
2022-08-20T03:50:06.427Z,3.73
2022-08-20T03:52:38.305Z,3.67
2022-08-20T03:55:10.877Z,4.00
2022-08-20T03:57:54.988Z,3.40
2022-08-20T04:00:49.377Z,3.80
2022-08-20T04:03:22.337Z,3.50
2022-08-20T04:05:54.514Z,3.87
2022-08-20T04:08:29.432Z,3.50
2022-08-20T04:11:01.635Z,3.40
2022-08-20T04:13:33.436Z,3.50
2022-08-20T04:16:08.771Z,3.67
2022-08-20T04:18:56.250Z,3.83
2022-08-20T04:21:35.969Z,4.10
2022-08-20T04:24:07.791Z,3.10
2022-08-20T04:26:56.503Z,3.40
2022-08-20T04:29:31.909Z,3.40
2022-08-20T04:32:06.237Z,3.50
2022-08-20T04:34:38.603Z,3.70
2022-08-20T04:37:17.225Z,3.73
2022-08-20T04:40:09.294Z,3.70
2022-08-20T04:42:41.231Z,3.83
2022-08-20T04:45:15.461Z,4.00
2022-08-20T04:47:47.444Z,4.30
2022-08-20T04:50:20.480Z,3.90
2022-08-20T04:52:52.239Z,4.03
2022-08-20T04:55:23.965Z,3.90
2022-08-20T04:57:58.013Z,4.27
2022-08-20T05:00:31.643Z,4.60
2022-08-20T05:03:03.651Z,4.87
2022-08-20T05:05:35.808Z,4.57
2022-08-20T05:08:11.643Z,5.67
2022-08-20T05:10:54.131Z,4.93
2022-08-20T05:13:38.634Z,5.03
2022-08-20T05:16:10.378Z,4.80
2022-08-20T05:18:44.232Z,5.50
2022-08-20T05:21:21.265Z,5.43
2022-08-20T05:23:53.011Z,5.97
2022-08-20T05:26:26.424Z,5.63
2022-08-20T05:28:59.454Z,5.27
2022-08-20T05:31:33.583Z,5.30
2022-08-20T05:34:11.951Z,4.77
2022-08-20T05:36:48.204Z,5.63
2022-08-20T05:39:22.761Z,5.63
2022-08-20T05:41:54.559Z,5.70
2022-08-20T05:44:26.309Z,5.00
2022-08-20T05:46:58.111Z,4.50
2022-08-20T05:49:30.082Z,5.30
2022-08-20T05:52:01.849Z,4.70
2022-08-20T05:54:33.803Z,5.87
2022-08-20T05:57:05.548Z,5.63
2022-08-20T05:59:39.557Z,5.37
2022-08-20T06:02:31.363Z,5.33
2022-08-20T06:05:03.341Z,5.70
2022-08-20T06:07:35.097Z,5.60
2022-08-20T06:10:09.089Z,5.30
2022-08-20T06:12:40.840Z,5.53
2022-08-20T06:15:13.034Z,5.80
2022-08-20T06:17:45.328Z,5.60
2022-08-20T06:20:29.846Z,5.10
2022-08-20T06:23:02.119Z,4.70
2022-08-20T06:25:37.948Z,5.70
2022-08-20T06:28:10.157Z,4.73
2022-08-20T06:30:42.008Z,5.30
2022-08-20T06:33:13.850Z,5.00
2022-08-20T06:35:45.599Z,5.43
2022-08-20T06:38:17.534Z,4.37
2022-08-20T06:40:49.414Z,5.50
2022-08-20T06:43:22.131Z,4.83
2022-08-20T06:45:57.597Z,5.47
2022-08-20T06:48:29.344Z,4.73
2022-08-20T06:51:01.630Z,5.10
2022-08-20T06:53:33.750Z,5.47
2022-08-20T06:56:06.672Z,5.13
2022-08-20T06:58:38.949Z,5.70
2022-08-20T07:01:12.231Z,19.43
2022-08-20T07:03:54.336Z,6.00
2022-08-20T07:06:27.688Z,5.17
2022-08-20T07:08:59.656Z,4.90
2022-08-20T07:11:31.399Z,6.10
2022-08-20T07:14:05.357Z,5.27
2022-08-20T07:16:37.326Z,5.43
2022-08-20T07:19:09.509Z,5.97
2022-08-20T07:21:41.525Z,5.43
2022-08-20T07:24:13.566Z,7.17
2022-08-20T07:26:45.840Z,5.50
2022-08-20T07:29:21.664Z,5.57
2022-08-20T07:32:12.248Z,5.10
2022-08-20T07:34:44.789Z,4.77
2022-08-20T07:37:16.684Z,5.93
2022-08-20T07:39:52.874Z,5.20
2022-08-20T07:42:24.749Z,4.57
2022-08-20T07:44:56.637Z,5.37
2022-08-20T07:47:28.534Z,5.20
2022-08-20T07:50:00.337Z,4.87
2022-08-20T07:52:34.666Z,5.60
2022-08-20T07:55:12.617Z,5.43
2022-08-20T07:57:46.827Z,5.50
2022-08-20T08:00:21.914Z,4.97
2022-08-20T08:02:53.737Z,5.50
2022-08-20T08:05:25.777Z,4.97
2022-08-20T08:07:58.141Z,6.03
2022-08-20T08:10:29.965Z,7.30
2022-08-20T08:13:06.679Z,8.17
2022-08-20T08:15:43.900Z,7.03
2022-08-20T08:18:21.648Z,7.93
2022-08-20T08:20:54.576Z,8.53
2022-08-20T08:23:31.500Z,9.83
2022-08-20T08:26:04.209Z,9.60
2022-08-20T08:28:36.988Z,8.60
2022-08-20T08:31:08.811Z,10.67
2022-08-20T08:33:41.743Z,9.37
2022-08-20T08:36:15.718Z,12.10
2022-08-20T08:38:47.688Z,11.27
2022-08-20T08:41:40.048Z,13.07
2022-08-20T08:44:21.721Z,15.00
2022-08-20T08:47:18.271Z,13.73
2022-08-20T08:49:50.079Z,13.47
2022-08-20T08:52:26.058Z,14.87
2022-08-20T08:55:02.872Z,16.67
2022-08-20T08:57:34.628Z,15.53
2022-08-20T09:00:13.276Z,17.57
2022-08-20T09:03:02.639Z,18.83
2022-08-20T09:05:59.732Z,18.80
2022-08-20T09:08:38.144Z,18.03
2022-08-20T09:11:10.505Z,19.97
2022-08-20T09:13:43.275Z,19.87
2022-08-20T09:16:15.291Z,19.23
2022-08-20T09:18:47.056Z,19.90
2022-08-20T09:21:19.425Z,19.80
2022-08-20T09:23:51.345Z,19.13
2022-08-20T09:26:23.122Z,19.60
2022-08-20T09:29:00.892Z,19.13
2022-08-20T09:31:32.775Z,20.97
2022-08-20T09:34:05.228Z,20.93
2022-08-20T09:36:36.981Z,17.73
2022-08-20T09:39:09.962Z,19.97
2022-08-20T09:41:41.947Z,20.67
2022-08-20T09:44:13.700Z,20.33
2022-08-20T09:46:45.448Z,19.13
2022-08-20T09:49:17.164Z,21.13
2022-08-20T09:51:49.097Z,21.17
2022-08-20T09:54:22.003Z,21.07
2022-08-20T09:56:53.878Z,20.90
2022-08-20T09:59:28.176Z,20.60
2022-08-20T10:02:00.023Z,21.07
2022-08-20T10:04:31.937Z,20.70
2022-08-20T10:07:07.763Z,20.33
2022-08-20T10:09:40.027Z,18.00
2022-08-20T10:12:11.884Z,18.53
2022-08-20T10:14:43.673Z,20.23
2022-08-20T10:17:15.476Z,19.40
2022-08-20T10:19:47.481Z,21.33
2022-08-20T10:22:19.225Z,20.80
2022-08-20T10:24:51.004Z,21.33
2022-08-20T10:27:22.781Z,20.37
2022-08-20T10:29:54.523Z,19.53
2022-08-20T10:32:26.314Z,20.97
2022-08-20T10:34:58.187Z,20.37
2022-08-20T10:37:30.016Z,19.83
2022-08-20T10:40:03.256Z,19.20
2022-08-20T10:42:37.983Z,21.27
2022-08-20T10:45:15.841Z,20.30
2022-08-20T10:47:47.605Z,21.53
2022-08-20T10:50:20.059Z,20.93
2022-08-20T10:52:51.923Z,23.00
2022-08-20T10:55:24.895Z,22.23
2022-08-20T10:57:56.842Z,20.53
2022-08-20T11:00:28.688Z,21.03
2022-08-20T11:03:00.465Z,22.17
2022-08-20T11:05:32.229Z,24.20
2022-08-20T11:08:05.227Z,22.57
2022-08-20T11:10:38.397Z,21.60
2022-08-20T11:13:12.155Z,22.53
2022-08-20T11:15:44.478Z,22.13
2022-08-20T11:18:16.298Z,21.00
2022-08-20T11:20:48.043Z,22.43
2022-08-20T11:23:20.011Z,22.97
2022-08-20T11:25:51.829Z,21.53
2022-08-20T11:28:31.374Z,21.07
2022-08-20T11:31:04.427Z,21.27
2022-08-20T11:33:36.197Z,20.60
2022-08-20T11:36:08.337Z,20.70
2022-08-20T11:38:40.114Z,21.50
2022-08-20T11:41:11.936Z,21.40
2022-08-20T11:43:59.550Z,18.80
2022-08-20T11:46:35.479Z,20.87
2022-08-20T11:49:07.327Z,19.40
2022-08-20T11:51:49.393Z,21.70
2022-08-20T11:54:22.045Z,21.33
2022-08-20T11:56:53.804Z,20.07
2022-08-20T11:59:26.685Z,19.53
2022-08-20T12:02:02.945Z,19.23
2022-08-20T12:04:35.446Z,17.97
2022-08-20T12:07:15.434Z,20.60
2022-08-20T12:09:50.904Z,18.30
2022-08-20T12:12:24.180Z,18.70
2022-08-20T12:14:56.029Z,17.97
2022-08-20T12:17:30.124Z,17.93
2022-08-20T12:20:07.141Z,17.20
2022-08-20T12:22:39.516Z,17.37
2022-08-20T12:25:13.239Z,19.60
2022-08-20T12:27:46.283Z,18.40
2022-08-20T12:30:20.553Z,20.20
2022-08-20T12:32:52.523Z,18.97
2022-08-20T12:35:24.690Z,17.40
2022-08-20T12:37:56.426Z,18.43
2022-08-20T12:40:32.881Z,18.40
2022-08-20T12:43:05.321Z,19.07
2022-08-20T12:45:37.517Z,16.97
2022-08-20T12:48:13.086Z,19.03
2022-08-20T12:50:46.200Z,19.90
2022-08-20T12:53:18.093Z,19.77
2022-08-20T12:55:49.881Z,19.60
2022-08-20T12:58:21.750Z,18.33
2022-08-20T13:00:53.489Z,17.83
2022-08-20T13:03:25.232Z,18.13
2022-08-20T13:06:01.460Z,19.00
2022-08-20T13:08:33.207Z,19.00
2022-08-20T13:11:05.112Z,18.30
2022-08-20T13:13:37.141Z,20.43
2022-08-20T13:16:08.857Z,18.53
2022-08-20T13:18:40.593Z,18.60
2022-08-20T13:21:12.546Z,19.17
2022-08-20T13:23:44.338Z,18.70
2022-08-20T13:26:16.653Z,18.90
2022-08-20T13:28:48.397Z,19.00
2022-08-20T13:31:20.364Z,19.33
2022-08-20T13:33:53.795Z,19.43
2022-08-20T13:36:25.942Z,17.93
2022-08-20T13:38:57.948Z,20.87
2022-08-20T13:41:29.678Z,20.20
2022-08-20T13:44:01.497Z,17.80
2022-08-20T13:46:33.284Z,18.53
2022-08-20T13:49:05.115Z,18.27
2022-08-20T13:51:36.841Z,18.17
2022-08-20T13:54:10.810Z,18.83
2022-08-20T13:56:42.893Z,20.03
2022-08-20T13:59:15.438Z,18.20
2022-08-20T14:01:47.348Z,17.83
2022-08-20T14:04:19.143Z,17.77
2022-08-20T14:06:50.857Z,19.20
2022-08-20T14:09:22.654Z,17.43
2022-08-20T14:11:54.393Z,16.97
2022-08-20T14:14:26.263Z,18.80
2022-08-20T14:16:58.004Z,16.17
2022-08-20T14:19:29.733Z,16.77
2022-08-20T14:22:01.460Z,17.03
2022-08-20T14:24:33.205Z,17.53
2022-08-20T14:27:09.145Z,19.00
2022-08-20T14:29:42.815Z,17.33
2022-08-20T14:32:14.829Z,16.87
2022-08-20T14:34:47.389Z,18.83
2022-08-20T14:37:20.776Z,15.70
2022-08-20T14:39:56.830Z,17.63
2022-08-20T14:42:29.539Z,16.10
2022-08-20T14:45:04.952Z,16.60
2022-08-20T14:47:47.079Z,18.57
2022-08-20T14:50:29.909Z,17.43
2022-08-20T14:53:01.926Z,18.60
2022-08-20T14:55:37.402Z,19.40
2022-08-20T14:58:10.656Z,18.23
2022-08-20T15:00:43.497Z,17.70
2022-08-20T15:03:15.292Z,17.60
2022-08-20T15:05:47.015Z,18.60
2022-08-20T15:08:22.142Z,18.53
2022-08-20T15:11:00.139Z,18.13
2022-08-20T15:13:31.980Z,18.43
2022-08-20T15:16:04.021Z,17.17
2022-08-20T15:18:35.777Z,15.37
2022-08-20T15:21:10.316Z,19.27
2022-08-20T15:23:42.166Z,17.83
2022-08-20T15:26:14.066Z,17.27
2022-08-20T15:28:45.921Z,17.73
2022-08-20T15:31:17.666Z,17.73
2022-08-20T15:33:49.402Z,18.80
2022-08-20T15:36:21.255Z,16.83
2022-08-20T15:38:53.208Z,17.87
2022-08-20T15:41:30.216Z,19.47
2022-08-20T15:44:07.186Z,21.50
2022-08-20T15:46:39.689Z,15.70
2022-08-20T15:49:12.525Z,18.70
2022-08-20T15:51:49.503Z,18.93
2022-08-20T15:54:27.367Z,18.83
2022-08-20T15:57:02.536Z,19.20
2022-08-20T16:00:11.316Z,20.20
2022-08-20T16:03:05.500Z,20.10
2022-08-20T16:06:13.835Z,19.40
2022-08-20T16:09:01.732Z,17.53
2022-08-20T16:11:36.223Z,20.43
2022-08-20T16:14:26.976Z,17.03
2022-08-20T16:17:06.271Z,21.40
2022-08-20T16:19:59.176Z,18.60
2022-08-20T16:22:31.646Z,18.90
2022-08-20T16:25:04.693Z,21.87
2022-08-20T16:27:49.353Z,20.20
2022-08-20T16:30:50.202Z,21.13
2022-08-20T16:33:56.922Z,19.57
2022-08-20T16:37:03.153Z,20.87
2022-08-20T16:39:45.854Z,17.50
2022-08-20T16:42:24.206Z,19.07
2022-08-20T16:44:56.692Z,17.30
2022-08-20T16:47:35.655Z,24.43
2022-08-20T16:50:19.845Z,20.80
2022-08-20T16:52:52.625Z,21.10
2022-08-20T16:55:24.666Z,23.07
2022-08-20T16:57:56.962Z,22.10
2022-08-20T17:00:44.932Z,22.10
2022-08-20T17:03:31.438Z,17.43
2022-08-20T17:06:38.591Z,11.50
2022-08-20T17:09:14.555Z,8.50
2022-08-20T17:11:52.050Z,9.23
2022-08-20T17:14:24.341Z,7.87
2022-08-20T17:16:56.297Z,6.10
2022-08-20T17:19:30.781Z,7.57
2022-08-20T17:22:17.936Z,7.40
2022-08-20T17:24:49.865Z,9.03
2022-08-20T17:27:38.100Z,10.17
2022-08-20T17:30:19.853Z,7.10
2022-08-20T17:32:58.857Z,8.37
2022-08-20T17:35:43.211Z,7.53
2022-08-20T17:38:46.531Z,8.20
2022-08-20T17:41:26.260Z,8.53
2022-08-20T17:44:23.468Z,8.67
2022-08-20T17:46:57.439Z,8.17
2022-08-20T17:50:02.215Z,9.23
2022-08-20T17:52:43.973Z,8.97
2022-08-20T17:55:15.735Z,10.60
2022-08-20T17:57:52.788Z,8.67
2022-08-20T18:00:28.263Z,10.70
2022-08-20T18:03:08.657Z,9.00
2022-08-20T18:05:40.475Z,10.63
2022-08-20T18:08:33.234Z,9.77
2022-08-20T18:11:24.912Z,10.67
2022-08-20T18:14:38.697Z,8.37
2022-08-20T18:17:42.159Z,7.93
2022-08-20T18:20:39.484Z,7.10
2022-08-20T18:23:20.442Z,8.73
2022-08-20T18:25:57.608Z,7.70
2022-08-20T18:28:50.114Z,8.27
2022-08-20T18:31:40.348Z,9.63
2022-08-20T18:34:16.019Z,8.57
2022-08-20T18:37:04.540Z,9.47
2022-08-20T18:39:41.842Z,10.00
2022-08-20T18:42:33.748Z,10.13
2022-08-20T18:45:06.589Z,9.53
2022-08-20T18:47:38.299Z,11.63
2022-08-20T18:50:16.853Z,12.30
2022-08-20T18:53:04.909Z,11.70
2022-08-20T18:55:58.968Z,12.23
2022-08-20T18:58:49.052Z,12.80
2022-08-20T19:01:21.250Z,13.30
2022-08-20T19:03:55.785Z,12.87
2022-08-20T19:06:57.280Z,13.53
2022-08-20T19:09:41.204Z,12.33
2022-08-20T19:12:43.558Z,11.00
2022-08-20T19:15:18.838Z,13.43
2022-08-20T19:18:02.438Z,14.23
2022-08-20T19:20:38.541Z,14.23
2022-08-20T19:23:18.537Z,13.40
2022-08-20T19:26:02.569Z,13.33
2022-08-20T19:28:52.232Z,12.53
2022-08-20T19:31:31.052Z,12.20
2022-08-20T19:34:22.141Z,12.60
2022-08-20T19:37:27.821Z,13.23
2022-08-20T19:39:58.988Z,10.67
2022-08-20T19:42:33.539Z,9.23
2022-08-20T19:45:08.956Z,11.13
2022-08-20T19:48:04.664Z,11.70
2022-08-20T19:50:36.509Z,10.23
2022-08-20T19:53:30.742Z,10.30
2022-08-20T19:56:17.880Z,10.40
2022-08-20T19:59:04.492Z,9.57
2022-08-20T20:01:36.977Z,9.90
2022-08-20T20:04:17.903Z,11.70
2022-08-20T20:06:50.074Z,10.53
2022-08-20T20:09:26.118Z,11.27
2022-08-20T20:12:02.769Z,11.53
2022-08-20T20:14:37.137Z,9.70
2022-08-20T20:17:14.991Z,9.33
2022-08-20T20:19:48.873Z,9.50
2022-08-20T20:22:31.198Z,9.60
2022-08-20T20:25:37.105Z,8.77
2022-08-20T20:28:20.208Z,9.17
2022-08-20T20:30:52.003Z,8.63
2022-08-20T20:33:43.395Z,8.60
2022-08-20T20:36:18.568Z,7.73
2022-08-20T20:39:01.071Z,7.83
2022-08-20T20:41:34.510Z,8.63
2022-08-20T20:44:28.681Z,8.30
2022-08-20T20:47:03.141Z,7.00
2022-08-20T20:49:58.581Z,7.93
2022-08-20T20:52:33.949Z,6.93
2022-08-20T20:55:25.629Z,6.93
2022-08-20T20:57:58.693Z,9.77
2022-08-20T21:00:34.014Z,6.87
2022-08-20T21:03:05.789Z,8.70
2022-08-20T21:05:39.027Z,6.80
2022-08-20T21:08:11.676Z,8.60
2022-08-20T21:10:43.774Z,7.17
2022-08-20T21:13:16.405Z,6.77
2022-08-20T21:15:48.214Z,6.67
2022-08-20T21:18:24.114Z,7.50
2022-08-20T21:20:58.340Z,6.80
2022-08-20T21:23:39.611Z,6.77
2022-08-20T21:26:12.386Z,6.10
2022-08-20T21:28:44.288Z,5.87
2022-08-20T21:31:16.109Z,6.93
2022-08-20T21:33:47.906Z,5.73
2022-08-20T21:36:19.674Z,7.17
2022-08-20T21:38:51.516Z,6.70
2022-08-20T21:41:29.418Z,7.10
2022-08-20T21:44:26.177Z,6.63
2022-08-20T21:46:58.494Z,7.33
2022-08-20T21:49:31.816Z,8.20
2022-08-20T21:52:03.879Z,8.10
2022-08-20T21:54:35.620Z,8.67
2022-08-20T21:57:29.884Z,8.63
2022-08-20T22:00:11.345Z,7.97
2022-08-20T22:02:43.151Z,8.07
2022-08-20T22:05:15.775Z,7.50
2022-08-20T22:07:47.537Z,6.67
2022-08-20T22:10:19.423Z,7.70
2022-08-20T22:12:51.261Z,8.77
2022-08-20T22:15:23.084Z,8.33
2022-08-20T22:17:55.045Z,8.10
2022-08-20T22:20:27.455Z,8.03
2022-08-20T22:23:01.965Z,8.20
2022-08-20T22:25:34.416Z,8.27
2022-08-20T22:28:06.176Z,8.13
2022-08-20T22:30:41.774Z,9.53
2022-08-20T22:33:19.748Z,7.87
2022-08-20T22:35:55.071Z,7.70
2022-08-20T22:38:27.134Z,9.10
2022-08-20T22:40:58.905Z,7.60
2022-08-20T22:43:30.691Z,6.60
2022-08-20T22:46:03.528Z,5.93
2022-08-20T22:48:36.056Z,6.13
2022-08-20T22:51:08.780Z,6.53
2022-08-20T22:53:43.008Z,6.60
2022-08-20T22:56:19.661Z,7.93
2022-08-20T22:58:51.905Z,6.50
2022-08-20T23:01:25.063Z,7.43
2022-08-20T23:04:28.580Z,7.93
2022-08-20T23:07:01.738Z,6.87
2022-08-20T23:09:33.489Z,7.07
2022-08-20T23:12:06.164Z,6.50
2022-08-20T23:14:38.393Z,6.77
2022-08-20T23:17:19.522Z,7.57
2022-08-20T23:19:51.758Z,5.90
2022-08-20T23:22:23.675Z,8.03
2022-08-20T23:24:59.867Z,7.17
2022-08-20T23:27:35.319Z,7.87
2022-08-20T23:30:07.932Z,7.00
2022-08-20T23:32:39.713Z,7.53
2022-08-20T23:35:12.187Z,9.00
2022-08-20T23:37:51.783Z,9.00
2022-08-20T23:40:28.381Z,8.57
2022-08-20T23:43:00.663Z,7.20
2022-08-20T23:45:33.318Z,7.43
2022-08-20T23:48:05.310Z,6.40
2022-08-20T23:50:37.843Z,6.00
2022-08-20T23:53:09.893Z,6.77
2022-08-20T23:55:41.653Z,6.80
2022-08-20T23:58:13.485Z,6.83
